»·PEaware :: N54073 KOLM-KTIW

N54073 :: KOLM-KTIW

FLIGHT INFORMATION

Flight Status: Arrived
Operator: Privately registered:
United States
More flights under this callsign
Pilot: Anonymous 27411 (27411)
Aircraft: CESSNA 172 SKYHAWK
(C172)
More flights by this aircraft type
Origin: KOLM Olympia
United States
Destination: KTIW Tacoma Narrows
United States
More flights between these airports :: More routes between these airports
Route: YELM5 OLM SCENN
File this flight plan on PilotEdge
Remarks: thank you!
Altitude:
(Current/Filed)
3,000ft
Speed:
(Current/Filed)
110kts
Departed: 12-Dec-21 06:35 PM
Arrived: 12-Dec-21 07:07 PM
Distance/Time
Traveled:
22nm/0:32
Distance/Time
To Go:
Arrived

Flight Plot

Page will automatically refresh every two minutes.

Flight plan parsing failed; only flown route is shown


Map Options




Map Legend


Flown Route
Filed Route
Departure Airport
Arrival Airport
Navaid (VOR, NDB)
Fix

Horizontal Profiles

Position Reports

Time Latitude Longitude Heading Altitude Ground
Speed
12-Dec-21 18:15 46.973395 -122.896582 322 212ft 0kts
12-Dec-21 18:16 46.973395 -122.896582 322 212ft 0kts
12-Dec-21 18:17 46.973395 -122.896582 322 212ft 0kts
12-Dec-21 18:18 46.973395 -122.896582 322 212ft 0kts
12-Dec-21 18:19 46.973395 -122.896582 322 212ft 0kts
12-Dec-21 18:20 46.973395 -122.896582 322 212ft 0kts
12-Dec-21 18:21 46.973395 -122.896582 322 212ft 0kts
12-Dec-21 18:22 46.973395 -122.896582 322 212ft 0kts
12-Dec-21 18:23 46.973395 -122.896582 322 212ft 0kts
12-Dec-21 18:24 46.973395 -122.896582 322 212ft 0kts
12-Dec-21 18:25 46.973395 -122.896582 322 212ft 0kts
12-Dec-21 18:26 46.973415 -122.896976 268 212ft 7kts
12-Dec-21 18:27 46.976203 -122.900112 315 212ft 12kts
12-Dec-21 18:28 46.976445 -122.900611 184 212ft 0kts
12-Dec-21 18:29 46.976445 -122.900611 184 212ft 0kts
12-Dec-21 18:30 46.976445 -122.900611 184 212ft 0kts
12-Dec-21 18:31 46.976445 -122.900611 184 212ft 0kts
12-Dec-21 18:32 46.976291 -122.900639 205 212ft 6kts
12-Dec-21 18:33 46.976152 -122.901232 280 212ft 0kts
12-Dec-21 18:34 46.974218 -122.903067 200 212ft 49kts
12-Dec-21 18:36 46.955641 -122.902370 104 949ft 77kts
12-Dec-21 18:37 46.958198 -122.868115 80 1622ft 95kts
12-Dec-21 18:38 46.961230 -122.830773 76 2286ft 99kts
12-Dec-21 18:39 46.982294 -122.809169 4 2956ft 101kts
12-Dec-21 18:40 47.011482 -122.794235 13 3078ft 125kts
12-Dec-21 18:41 47.040761 -122.776923 18 3046ft 108kts
12-Dec-21 18:42 47.069303 -122.762954 15 2968ft 108kts
12-Dec-21 18:43 47.093067 -122.740234 39 2963ft 103kts
12-Dec-21 18:44 47.120522 -122.719065 18 3041ft 121kts
12-Dec-21 18:45 47.150086 -122.701400 37 2914ft 116kts
12-Dec-21 18:46 47.177616 -122.680981 26 2961ft 108kts
12-Dec-21 18:47 47.206422 -122.666882 3 2969ft 110kts
12-Dec-21 18:48 47.231327 -122.648331 62 2952ft 104kts
12-Dec-21 18:49 47.256268 -122.629018 27 3022ft 102kts
12-Dec-21 18:50 47.283638 -122.611609 8 2988ft 109kts
12-Dec-21 18:51 47.311146 -122.596476 14 2961ft 110kts
12-Dec-21 18:52 47.335212 -122.572598 1 2954ft 111kts
12-Dec-21 18:53 47.363588 -122.559732 13 3006ft 107kts
12-Dec-21 18:54 47.393740 -122.555035 8 2281ft 111kts
12-Dec-21 18:55 47.423312 -122.549713 345 1902ft 104kts
12-Dec-21 18:56 47.445050 -122.570699 312 2010ft 90kts
12-Dec-21 18:57 47.465095 -122.576069 75 1965ft 86kts
12-Dec-21 18:58 47.451818 -122.553483 153 2073ft 76kts
12-Dec-21 18:59 47.431055 -122.549133 186 1966ft 80kts
12-Dec-21 18:59 47.413947 -122.552107 186 2013ft 75kts
12-Dec-21 19:01 47.389812 -122.557755 186 2036ft 79kts
12-Dec-21 19:02 47.368004 -122.559698 179 2034ft 78kts
12-Dec-21 19:03 47.346518 -122.563351 191 1946ft 83kts
12-Dec-21 19:03 47.328207 -122.567168 180 1369ft 79kts
12-Dec-21 19:04 47.307280 -122.571362 178 950ft 79kts
12-Dec-21 19:06 47.282133 -122.576193 176 489ft 74kts
12-Dec-21 19:07 47.269379 -122.577856 181 295ft 12kts
12-Dec-21 19:07 47.267829 -122.577092 97 295ft 0kts
12-Dec-21 19:08 47.267828 -122.577090 95 295ft 0kts
12-Dec-21 19:09 47.268859 -122.575690 95 295ft 0kts

Navigation Log

Ident Type
Flight plan parsing failed, navigation log unavailable